Time;durP1;ratioP1;P1;durP2;ratioP2;P2;SDS_P1;SDS_P2;PMS_P1;PMS_P2;Temp;Humidity;BMP_temperature;BMP_pressure;BME280_temperature;BME280_humidity;BME280_pressure;Samples;Min_cycle;Max_cycle;Signal;HPM_P1;HPM_P2
2022/04/07 00:01:04;;;;;;;0.60;0.60;;;;;;;;;;5072461;28;20418;-74
2022/04/07 00:03:30;;;;;;;0.47;0.47;;;;;;;;;;5054014;28;20417;-74
2022/04/07 00:05:57;;;;;;;0.40;0.40;;;;;;;;;;5073355;28;20469;-74
2022/04/07 00:08:23;;;;;;;0.57;0.37;;;;;;;;;;5072648;28;20422;-74
2022/04/07 00:10:50;;;;;;;0.37;0.37;;;;;;;;;;5072904;28;20422;-74
2022/04/07 00:16:19;;;;;;;0.40;0.40;;;;;;;;;;5072516;28;20455;-75
2022/04/07 00:18:46;;;;;;;0.30;0.30;;;;;;;;;;5072759;28;20898;-74
2022/04/07 00:21:12;;;;;;;0.53;0.30;;;;;;;;;;5072557;28;20414;-74
2022/04/07 00:23:39;;;;;;;0.50;0.50;;;;;;;;;;5076510;28;20944;-74
2022/04/07 00:26:05;;;;;;;0.30;0.30;;;;;;;;;;5076537;28;20491;-73
2022/04/07 00:28:31;;;;;;;0.30;0.30;;;;;;;;;;5076058;28;20409;-75
2022/04/07 00:30:58;;;;;;;1.20;0.40;;;;;;;;;;5076278;28;20432;-74
2022/04/07 00:33:24;;;;;;;0.30;0.30;;;;;;;;;;5075789;28;20461;-75
2022/04/07 00:35:50;;;;;;;0.97;0.30;;;;;;;;;;5076156;28;20428;-75
2022/04/07 00:38:16;;;;;;;0.60;0.40;;;;;;;;;;5076020;28;20413;-73
2022/04/07 00:40:42;;;;;;;0.33;0.33;;;;;;;;;;5076361;28;20451;-73
2022/04/07 00:43:08;;;;;;;0.50;0.43;;;;;;;;;;5076491;28;20913;-74
2022/04/07 00:45:34;;;;;;;1.40;0.57;;;;;;;;;;5076079;28;20841;-74
2022/04/07 00:48:00;;;;;;;0.70;0.53;;;;;;;;;;5075876;28;20421;-74
2022/04/07 00:50:26;;;;;;;0.40;0.40;;;;;;;;;;5075819;28;20800;-74
2022/04/07 00:52:54;;;;;;;0.40;0.40;;;;;;;;;;5075834;28;20418;-75
2022/04/07 00:55:20;;;;;;;0.63;0.63;;;;;;;;;;5076010;28;20410;-74
2022/04/07 00:57:47;;;;;;;0.90;0.90;;;;;;;;;;5075669;28;20429;-74
2022/04/07 01:00:13;;;;;;;0.40;0.40;;;;;;;;;;5076186;28;20874;-74
2022/04/07 01:02:40;;;;;;;0.67;0.50;;;;;;;;;;5075908;28;20412;-74
2022/04/07 01:05:06;;;;;;;1.37;0.60;;;;;;;;;;5076133;28;20765;-74
2022/04/07 01:07:37;;;;;;;0.70;0.70;;;;;;;;;;5075368;28;20987;-74
2022/04/07 01:10:03;;;;;;;0.60;0.40;;;;;;;;;;5057769;28;20433;-74
2022/04/07 01:12:29;;;;;;;0.63;0.63;;;;;;;;;;5075438;28;20500;-74
2022/04/07 01:14:59;;;;;;;0.70;0.60;;;;;;;;;;5075222;28;20449;-74
2022/04/07 01:17:24;;;;;;;3.30;0.70;;;;;;;;;;5075587;28;20499;-74
2022/04/07 01:19:51;;;;;;;0.70;0.57;;;;;;;;;;5075401;28;20446;-75
2022/04/07 01:22:17;;;;;;;0.40;0.40;;;;;;;;;;5075588;28;20430;-75
2022/04/07 01:24:43;;;;;;;0.63;0.63;;;;;;;;;;5075214;28;20406;-73
2022/04/07 01:27:09;;;;;;;0.70;0.60;;;;;;;;;;5075356;28;20833;-74
2022/04/07 01:29:36;;;;;;;1.17;0.70;;;;;;;;;;5075032;28;20433;-73
2022/04/07 01:32:08;;;;;;;0.60;0.60;;;;;;;;;;5075280;28;21044;-74
2022/04/07 01:34:34;;;;;;;0.80;0.80;;;;;;;;;;5075393;28;20398;-75
2022/04/07 01:37:01;;;;;;;0.87;0.60;;;;;;;;;;5075245;28;20457;-75
2022/04/07 01:39:27;;;;;;;0.60;0.60;;;;;;;;;;5074966;28;20426;-74
2022/04/07 01:41:54;;;;;;;0.70;0.70;;;;;;;;;;5074824;28;20468;-74
2022/04/07 01:44:20;;;;;;;0.60;0.60;;;;;;;;;;5074901;28;20424;-74
2022/04/07 01:46:47;;;;;;;0.70;0.70;;;;;;;;;;5074694;28;20460;-75
2022/04/07 01:49:13;;;;;;;0.70;0.50;;;;;;;;;;5056865;28;20422;-75
2022/04/07 01:51:39;;;;;;;2.10;0.80;;;;;;;;;;5074899;28;20574;-75
2022/04/07 01:54:11;;;;;;;1.03;0.90;;;;;;;;;;5074784;28;20508;-74
2022/04/07 01:56:38;;;;;;;2.00;0.67;;;;;;;;;;5074613;28;20398;-74
2022/04/07 01:59:04;;;;;;;1.27;0.70;;;;;;;;;;5074657;28;20425;-74
2022/04/07 02:01:30;;;;;;;0.70;0.70;;;;;;;;;;5074432;28;20420;-74
2022/04/07 02:03:56;;;;;;;0.67;0.67;;;;;;;;;;5074488;28;20426;-74
2022/04/07 02:06:25;;;;;;;1.70;0.60;;;;;;;;;;5074252;28;20496;-74
2022/04/07 02:08:50;;;;;;;0.73;0.73;;;;;;;;;;5074245;28;20421;-74
2022/04/07 02:11:17;;;;;;;0.70;0.70;;;;;;;;;;5074586;28;20463;-73
2022/04/07 02:13:43;;;;;;;0.50;0.50;;;;;;;;;;5074046;28;20418;-73
2022/04/07 02:16:09;;;;;;;0.70;0.70;;;;;;;;;;5074483;28;20420;-74
2022/04/07 02:18:36;;;;;;;0.60;0.60;;;;;;;;;;5074943;28;20504;-74
2022/04/07 02:21:02;;;;;;;0.80;0.80;;;;;;;;;;5074172;28;20422;-73
2022/04/07 02:26:31;;;;;;;0.50;0.50;;;;;;;;;;5073905;28;20512;-74
2022/04/07 02:28:57;;;;;;;0.40;0.40;;;;;;;;;;5056005;28;20942;-74
2022/04/07 02:31:23;;;;;;;0.40;0.40;;;;;;;;;;5074304;28;20524;-74
2022/04/07 02:33:49;;;;;;;0.70;0.70;;;;;;;;;;5055969;28;20417;-74
2022/04/07 02:36:17;;;;;;;0.40;0.40;;;;;;;;;;5073802;28;20426;-74
2022/04/07 02:38:43;;;;;;;0.53;0.53;;;;;;;;;;5056049;28;20757;-74
2022/04/07 02:41:09;;;;;;;2.00;0.73;;;;;;;;;;5073779;28;20419;-74
2022/04/07 02:43:35;;;;;;;0.40;0.40;;;;;;;;;;5073948;28;20889;-74
2022/04/07 02:46:01;;;;;;;0.60;0.60;;;;;;;;;;5073090;28;20921;-73
2022/04/07 02:48:27;;;;;;;0.50;0.50;;;;;;;;;;5073568;28;20425;-73
2022/04/07 02:50:53;;;;;;;0.40;0.40;;;;;;;;;;5073890;28;20888;-74
2022/04/07 02:53:19;;;;;;;0.53;0.53;;;;;;;;;;5073584;28;20948;-74
2022/04/07 02:55:45;;;;;;;0.40;0.40;;;;;;;;;;5073371;28;20413;-74
2022/04/07 02:58:11;;;;;;;0.60;0.60;;;;;;;;;;5073436;28;20483;-74
2022/04/07 03:00:37;;;;;;;0.70;0.70;;;;;;;;;;5073627;28;20414;-75
2022/04/07 03:03:03;;;;;;;0.30;0.30;;;;;;;;;;5073220;28;20422;-74
2022/04/07 03:05:29;;;;;;;2.50;0.67;;;;;;;;;;5073322;28;20436;-74
2022/04/07 03:07:55;;;;;;;0.50;0.50;;;;;;;;;;5073242;28;20480;-74
2022/04/07 03:10:21;;;;;;;0.50;0.50;;;;;;;;;;5073562;28;20413;-74
2022/04/07 03:12:47;;;;;;;0.70;0.70;;;;;;;;;;5073457;28;20409;-74
2022/04/07 03:15:13;;;;;;;0.60;0.50;;;;;;;;;;5073034;28;20417;-74
2022/04/07 03:17:39;;;;;;;0.53;0.53;;;;;;;;;;5073356;28;20492;-74
2022/04/07 03:20:05;;;;;;;0.73;0.40;;;;;;;;;;5073173;28;20847;-74
2022/04/07 03:22:31;;;;;;;0.30;0.30;;;;;;;;;;5055253;28;20418;-73
2022/04/07 03:24:57;;;;;;;1.07;0.40;;;;;;;;;;5073122;28;20482;-74
2022/04/07 03:27:23;;;;;;;0.57;0.57;;;;;;;;;;5073314;28;20480;-74
2022/04/07 03:29:49;;;;;;;0.30;0.30;;;;;;;;;;5073288;28;20405;-74
2022/04/07 03:32:15;;;;;;;0.50;0.50;;;;;;;;;;5072788;28;20483;-74
2022/04/07 03:34:41;;;;;;;6.77;0.30;;;;;;;;;;5072890;28;20420;-74
2022/04/07 03:37:07;;;;;;;0.40;0.40;;;;;;;;;;5054951;28;20429;-74
2022/04/07 03:39:34;;;;;;;0.40;0.40;;;;;;;;;;5073291;28;20420;-74
2022/04/07 03:42:00;;;;;;;0.30;0.30;;;;;;;;;;5073138;28;20429;-74
2022/04/07 03:44:26;;;;;;;0.40;0.40;;;;;;;;;;5073010;28;20465;-74
2022/04/07 03:46:52;;;;;;;0.63;0.53;;;;;;;;;;5072696;28;20811;-74
2022/04/07 03:49:20;;;;;;;0.40;0.40;;;;;;;;;;5072673;28;20905;-74
2022/04/07 03:51:46;;;;;;;1.03;0.40;;;;;;;;;;5072876;28;20928;-74
2022/04/07 03:54:12;;;;;;;0.30;0.30;;;;;;;;;;5072893;28;20470;-74
2022/04/07 03:56:38;;;;;;;0.40;0.40;;;;;;;;;;5074668;28;20439;-74
2022/04/07 03:59:04;;;;;;;0.50;0.40;;;;;;;;;;5076981;28;20440;-74
2022/04/07 04:01:30;;;;;;;0.50;0.50;;;;;;;;;;5076678;28;20409;-73
2022/04/07 04:03:56;;;;;;;2.00;0.50;;;;;;;;;;5077329;28;20397;-73
2022/04/07 04:06:22;;;;;;;0.30;0.30;;;;;;;;;;5076675;28;20544;-74
2022/04/07 04:08:48;;;;;;;0.30;0.30;;;;;;;;;;5076912;28;20410;-74
2022/04/07 04:11:14;;;;;;;0.33;0.33;;;;;;;;;;5076937;28;20412;-74
2022/04/07 04:13:40;;;;;;;0.30;0.30;;;;;;;;;;5076331;28;20413;-75
2022/04/07 04:16:08;;;;;;;1.17;0.30;;;;;;;;;;5076466;28;20889;-74
2022/04/07 04:18:34;;;;;;;0.33;0.33;;;;;;;;;;5076427;28;20445;-74
2022/04/07 04:21:00;;;;;;;0.67;0.40;;;;;;;;;;5076785;28;20429;-74
2022/04/07 04:26:30;;;;;;;3.03;0.97;;;;;;;;;;5076234;28;20606;-74
2022/04/07 04:28:56;;;;;;;0.67;0.50;;;;;;;;;;5076240;28;20421;-74
2022/04/07 04:31:24;;;;;;;0.30;0.30;;;;;;;;;;5076359;28;20405;-74
2022/04/07 04:33:53;;;;;;;0.37;0.37;;;;;;;;;;5076863;28;20512;-74
2022/04/07 04:36:19;;;;;;;1.70;0.40;;;;;;;;;;5076692;28;20437;-73
2022/04/07 04:38:45;;;;;;;0.60;0.30;;;;;;;;;;5076706;28;20865;-74
2022/04/07 04:41:11;;;;;;;2.00;0.40;;;;;;;;;;5076981;28;20519;-75
2022/04/07 04:43:37;;;;;;;0.30;0.30;;;;;;;;;;5076167;28;20572;-74
2022/04/07 04:46:03;;;;;;;0.30;0.30;;;;;;;;;;5075926;28;20586;-75
2022/04/07 04:48:29;;;;;;;1.10;0.33;;;;;;;;;;5076152;28;20436;-74
2022/04/07 04:50:58;;;;;;;0.30;0.30;;;;;;;;;;5076239;28;20884;-74
2022/04/07 04:53:24;;;;;;;0.30;0.30;;;;;;;;;;5075598;28;20433;-74
2022/04/07 04:55:50;;;;;;;0.40;0.40;;;;;;;;;;5075796;28;20469;-74
2022/04/07 04:58:17;;;;;;;0.40;0.40;;;;;;;;;;5075809;28;20429;-74
2022/04/07 05:00:43;;;;;;;0.40;0.40;;;;;;;;;;5075828;28;20409;-74
2022/04/07 05:03:09;;;;;;;0.30;0.30;;;;;;;;;;5057647;28;20433;-74
2022/04/07 05:05:35;;;;;;;0.30;0.30;;;;;;;;;;5075927;28;20496;-74
2022/04/07 05:08:02;;;;;;;0.77;0.40;;;;;;;;;;5074933;28;20571;-74
2022/04/07 05:10:28;;;;;;;2.40;0.43;;;;;;;;;;5075829;28;20417;-74
2022/04/07 05:12:54;;;;;;;0.40;0.40;;;;;;;;;;5075347;28;20479;-74
2022/04/07 05:15:20;;;;;;;0.30;0.30;;;;;;;;;;5075567;28;20428;-74
2022/04/07 05:17:49;;;;;;;0.30;0.30;;;;;;;;;;5075324;28;20421;-74
2022/04/07 05:20:15;;;;;;;2.30;0.37;;;;;;;;;;5075656;28;20493;-73
2022/04/07 05:22:41;;;;;;;4.70;0.40;;;;;;;;;;5075243;28;20417;-74
2022/04/07 05:25:08;;;;;;;0.30;0.30;;;;;;;;;;5075236;28;20422;-74
2022/04/07 05:27:36;;;;;;;0.63;0.40;;;;;;;;;;5075299;28;20465;-74
2022/04/07 05:30:03;;;;;;;0.20;0.20;;;;;;;;;;5075115;28;20413;-73
2022/04/07 05:32:29;;;;;;;0.40;0.40;;;;;;;;;;5074953;28;20483;-74
2022/04/07 05:34:56;;;;;;;4.63;0.30;;;;;;;;;;5075088;28;20413;-74
2022/04/07 05:37:24;;;;;;;1.60;0.40;;;;;;;;;;5075242;28;20417;-74
2022/04/07 05:39:51;;;;;;;2.67;0.40;;;;;;;;;;5075810;28;20417;-74
2022/04/07 05:42:17;;;;;;;3.10;0.30;;;;;;;;;;5075168;28;20421;-74
2022/04/07 05:44:43;;;;;;;1.00;0.40;;;;;;;;;;5075229;28;20801;-74
2022/04/07 05:47:09;;;;;;;0.37;0.37;;;;;;;;;;5074743;28;20479;-74
2022/04/07 05:49:36;;;;;;;0.40;0.40;;;;;;;;;;5075042;28;20474;-75
2022/04/07 05:52:04;;;;;;;0.30;0.30;;;;;;;;;;5074722;28;20422;-74
2022/04/07 05:54:30;;;;;;;3.47;0.43;;;;;;;;;;5074865;28;20413;-74
2022/04/07 05:56:56;;;;;;;0.50;0.50;;;;;;;;;;5074713;28;20419;-74
2022/04/07 05:59:22;;;;;;;0.47;0.30;;;;;;;;;;5074800;28;20417;-73
2022/04/07 06:01:48;;;;;;;0.40;0.40;;;;;;;;;;5074517;28;20521;-73
2022/04/07 06:04:14;;;;;;;0.40;0.40;;;;;;;;;;5074726;28;20413;-74
2022/04/07 06:06:40;;;;;;;0.93;0.30;;;;;;;;;;5074196;28;20523;-75
2022/04/07 06:09:06;;;;;;;1.13;0.37;;;;;;;;;;5074357;28;20417;-76
2022/04/07 06:11:32;;;;;;;0.53;0.53;;;;;;;;;;5074611;28;20453;-74
2022/04/07 06:13:58;;;;;;;5.13;0.60;;;;;;;;;;5074190;28;21002;-74
2022/04/07 06:16:24;;;;;;;2.20;0.60;;;;;;;;;;5074247;28;20417;-73
2022/04/07 06:18:51;;;;;;;0.77;0.40;;;;;;;;;;5073392;28;20414;-75
2022/04/07 06:21:17;;;;;;;0.30;0.30;;;;;;;;;;5074309;28;20413;-73
2022/04/07 06:23:43;;;;;;;0.87;0.60;;;;;;;;;;5074353;28;20501;-74
2022/04/07 06:26:09;;;;;;;1.23;1.23;;;;;;;;;;5073972;28;20544;-75
2022/04/07 06:28:35;;;;;;;2.87;0.40;;;;;;;;;;5073931;28;20428;-69
2022/04/07 06:31:01;;;;;;;1.80;0.60;;;;;;;;;;5074100;28;20742;-73
2022/04/07 06:33:27;;;;;;;0.33;0.33;;;;;;;;;;5073651;28;20473;-74
2022/04/07 06:35:53;;;;;;;1.40;0.40;;;;;;;;;;5074137;28;20413;-73
2022/04/07 06:38:19;;;;;;;4.40;0.30;;;;;;;;;;5074297;28;20426;-74
2022/04/07 06:40:46;;;;;;;2.27;0.50;;;;;;;;;;5073610;28;20520;-75
2022/04/07 06:43:12;;;;;;;4.90;0.40;;;;;;;;;;5073641;28;20426;-75
2022/04/07 06:45:38;;;;;;;0.80;0.40;;;;;;;;;;5073698;28;20420;-68
2022/04/07 06:48:04;;;;;;;3.40;0.60;;;;;;;;;;5074009;28;20960;-69
2022/04/07 06:50:31;;;;;;;0.70;0.70;;;;;;;;;;5073457;28;20495;-73
2022/04/07 06:52:57;;;;;;;4.63;0.60;;;;;;;;;;5073514;28;20761;-71
2022/04/07 06:55:23;;;;;;;1.93;0.60;;;;;;;;;;5073472;28;21019;-74
2022/04/07 06:57:53;;;;;;;2.20;0.63;;;;;;;;;;5073344;28;20466;-73
2022/04/07 07:00:20;;;;;;;0.40;0.40;;;;;;;;;;5073605;28;20412;-73
2022/04/07 07:05:50;;;;;;;0.43;0.43;;;;;;;;;;5073200;28;20389;-73
2022/04/07 07:08:17;;;;;;;6.53;0.57;;;;;;;;;;5073394;28;20418;-75
2022/04/07 07:10:45;;;;;;;0.47;0.47;;;;;;;;;;5073240;28;20440;-73
2022/04/07 07:13:12;;;;;;;2.37;0.60;;;;;;;;;;5073363;28;20422;-76
2022/04/07 07:15:38;;;;;;;0.87;0.40;;;;;;;;;;5073062;28;20413;-75
2022/04/07 07:18:04;;;;;;;5.60;0.70;;;;;;;;;;5072908;28;20414;-75
2022/04/07 07:20:31;;;;;;;1.43;1.07;;;;;;;;;;5055176;28;20460;-74
2022/04/07 07:22:56;;;;;;;3.07;0.60;;;;;;;;;;5073802;28;20452;-72
2022/04/07 07:25:23;;;;;;;0.30;0.30;;;;;;;;;;5073762;28;20449;-75
2022/04/07 07:27:49;;;;;;;1.80;0.33;;;;;;;;;;5073263;28;20480;-73
2022/04/07 07:30:16;;;;;;;2.63;0.83;;;;;;;;;;5072699;28;20975;-74
2022/04/07 07:32:43;;;;;;;1.70;0.40;;;;;;;;;;5072723;28;20472;-73
2022/04/07 07:35:10;;;;;;;0.30;0.30;;;;;;;;;;5073115;28;20422;-73
2022/04/07 07:37:36;;;;;;;0.67;0.50;;;;;;;;;;5073099;28;20478;-73
2022/04/07 07:40:06;;;;;;;0.37;0.37;;;;;;;;;;5072584;28;20428;-73
2022/04/07 07:42:32;;;;;;;0.40;0.40;;;;;;;;;;5072870;28;20453;-73
2022/04/07 07:44:58;;;;;;;0.30;0.30;;;;;;;;;;5073931;28;20413;-74
2022/04/07 07:47:24;;;;;;;0.53;0.30;;;;;;;;;;5072529;28;20491;-72
2022/04/07 07:49:50;;;;;;;0.70;0.70;;;;;;;;;;5072998;28;20418;-73
2022/04/07 07:52:16;;;;;;;0.43;0.33;;;;;;;;;;5073128;28;20414;-73
2022/04/07 07:54:42;;;;;;;0.30;0.30;;;;;;;;;;5072658;28;20418;-73
2022/04/07 07:57:08;;;;;;;1.23;0.30;;;;;;;;;;5073011;28;20417;-72
2022/04/07 07:59:33;;;;;;;0.30;0.30;;;;;;;;;;5072822;28;20827;-72
2022/04/07 08:01:59;;;;;;;0.33;0.33;;;;;;;;;;5072748;28;20421;-73
2022/04/07 08:04:25;;;;;;;3.80;0.30;;;;;;;;;;5054774;28;20410;-74
2022/04/07 08:06:51;;;;;;;0.40;0.40;;;;;;;;;;5072957;28;20604;-75
2022/04/07 08:09:17;;;;;;;1.03;0.40;;;;;;;;;;5072970;28;20417;-75
2022/04/07 08:11:43;;;;;;;15.73;0.90;;;;;;;;;;5072690;28;20417;-75
2022/04/07 08:14:09;;;;;;;8.30;0.80;;;;;;;;;;5073002;28;20417;-74
2022/04/07 08:16:36;;;;;;;3.73;2.80;;;;;;;;;;5072655;28;20913;-76
2022/04/07 08:19:02;;;;;;;4.77;2.90;;;;;;;;;;5072987;28;20413;-81
2022/04/07 08:21:28;;;;;;;2.30;2.13;;;;;;;;;;5054666;28;20479;-74
2022/04/07 08:23:54;;;;;;;2.43;2.43;;;;;;;;;;5072552;28;20830;-76
2022/04/07 08:26:20;;;;;;;2.97;2.00;;;;;;;;;;5072755;28;20469;-74
2022/04/07 08:28:46;;;;;;;0.90;0.90;;;;;;;;;;5072449;28;20478;-75
2022/04/07 08:31:12;;;;;;;4.23;0.80;;;;;;;;;;5072427;28;20414;-74
2022/04/07 08:33:38;;;;;;;4.93;0.80;;;;;;;;;;5054399;28;20571;-73
2022/04/07 08:36:04;;;;;;;0.60;0.60;;;;;;;;;;5072503;28;20496;-75
2022/04/07 08:38:30;;;;;;;0.87;0.53;;;;;;;;;;5072420;28;20939;-73
2022/04/07 08:40:56;;;;;;;3.30;0.47;;;;;;;;;;5072453;28;20409;-73
2022/04/07 08:43:23;;;;;;;6.13;0.60;;;;;;;;;;5074603;28;20452;-76
2022/04/07 08:45:49;;;;;;;0.37;0.37;;;;;;;;;;5076373;28;20424;-74
2022/04/07 08:48:15;;;;;;;6.30;0.50;;;;;;;;;;5076039;28;20472;-76
2022/04/07 08:50:45;;;;;;;0.50;0.50;;;;;;;;;;5075764;28;20449;-74
2022/04/07 08:53:12;;;;;;;0.30;0.30;;;;;;;;;;5076188;28;20409;-75
2022/04/07 08:55:38;;;;;;;0.40;0.40;;;;;;;;;;5075851;28;20415;-74
2022/04/07 08:58:04;;;;;;;0.70;0.70;;;;;;;;;;5076075;28;20410;-79
2022/04/07 09:00:31;;;;;;;0.40;0.40;;;;;;;;;;5057701;28;20944;-75
2022/04/07 09:02:57;;;;;;;0.37;0.37;;;;;;;;;;5075737;28;20504;-74
2022/04/07 09:05:24;;;;;;;0.60;0.37;;;;;;;;;;5075994;28;20405;-77
2022/04/07 09:07:50;;;;;;;0.33;0.33;;;;;;;;;;5075759;28;20607;-74
2022/04/07 09:10:18;;;;;;;0.40;0.40;;;;;;;;;;5075864;28;20417;-76
2022/04/07 09:12:44;;;;;;;0.80;0.60;;;;;;;;;;5075545;28;20424;-75
2022/04/07 09:15:12;;;;;;;0.30;0.30;;;;;;;;;;5075318;28;20504;-75
2022/04/07 09:17:51;;;;;;;4.63;0.30;;;;;;;;;;5075538;28;20421;-75
2022/04/07 09:20:17;;;;;;;1.13;0.60;;;;;;;;;;5075382;28;20886;-77
2022/04/07 09:22:43;;;;;;;0.60;0.53;;;;;;;;;;5075543;28;20441;-74
2022/04/07 09:25:11;;;;;;;2.37;1.37;;;;;;;;;;5075511;28;20878;-76
2022/04/07 09:27:40;;;;;;;0.60;0.60;;;;;;;;;;5057880;28;20480;-74
2022/04/07 09:30:08;;;;;;;0.40;0.40;;;;;;;;;;5075253;28;20410;-75
2022/04/07 09:32:40;;;;;;;3.20;0.40;;;;;;;;;;5074917;28;20515;-76
2022/04/07 09:35:06;;;;;;;0.30;0.30;;;;;;;;;;5075250;28;20402;-75
2022/04/07 09:37:32;;;;;;;1.70;1.60;;;;;;;;;;5074996;28;20886;-75
2022/04/07 09:40:09;;;;;;;0.70;0.40;;;;;;;;;;5075209;28;20439;-77
2022/04/07 09:42:35;;;;;;;0.40;0.40;;;;;;;;;;5074933;28;20422;-74
2022/04/07 09:45:02;;;;;;;0.80;0.70;;;;;;;;;;5075111;28;20413;-75
2022/04/07 09:47:37;;;;;;;0.50;0.50;;;;;;;;;;5074666;28;20469;-75
2022/04/07 09:50:04;;;;;;;0.43;0.43;;;;;;;;;;5075048;28;20821;-72
2022/04/07 09:52:31;;;;;;;4.80;0.50;;;;;;;;;;5074670;28;20413;-74
2022/04/07 09:55:01;;;;;;;0.50;0.50;;;;;;;;;;5073401;28;20508;-76
2022/04/07 09:57:27;;;;;;;0.63;0.63;;;;;;;;;;5074705;28;20413;-74
2022/04/07 09:59:54;;;;;;;1.23;0.73;;;;;;;;;;5056617;28;20485;-74
2022/04/07 10:02:20;;;;;;;0.47;0.47;;;;;;;;;;5074757;28;20436;-78
2022/04/07 10:04:47;;;;;;;0.73;0.73;;;;;;;;;;5074690;28;20418;-75
2022/04/07 10:07:13;;;;;;;0.40;0.37;;;;;;;;;;5074391;28;20969;-76
2022/04/07 10:09:46;;;;;;;0.93;0.33;;;;;;;;;;5074666;28;20421;-76
2022/04/07 10:12:12;;;;;;;0.40;0.40;;;;;;;;;;5074761;28;20489;-74
2022/04/07 10:14:38;;;;;;;2.30;2.30;;;;;;;;;;5074195;28;20905;-76
2022/04/07 10:17:06;;;;;;;0.93;0.93;;;;;;;;;;5074551;28;20421;-75
2022/04/07 10:19:35;;;;;;;4.30;4.00;;;;;;;;;;5074233;28;20752;-75
2022/04/07 10:22:15;;;;;;;3.57;3.27;;;;;;;;;;5074459;28;20549;-74
2022/04/07 10:24:44;;;;;;;12.93;9.23;;;;;;;;;;5074161;28;20413;-74
2022/04/07 10:27:11;;;;;;;7.17;6.13;;;;;;;;;;5074306;28;20514;-73
2022/04/07 10:29:40;;;;;;;5.27;4.87;;;;;;;;;;5074271;28;20420;-74
2022/04/07 10:32:12;;;;;;;2.53;1.40;;;;;;;;;;5073914;28;20494;-73
2022/04/07 10:34:42;;;;;;;7.93;1.67;;;;;;;;;;5074022;28;20778;-74
2022/04/07 10:37:08;;;;;;;6.53;3.17;;;;;;;;;;5074275;28;20500;-74
2022/04/07 10:39:34;;;;;;;11.40;8.50;;;;;;;;;;5074028;28;20456;-74
2022/04/07 10:42:01;;;;;;;31.07;16.33;;;;;;;;;;5055662;28;20417;-73
2022/04/07 10:44:27;;;;;;;5.50;2.73;;;;;;;;;;5073639;28;20413;-74
2022/04/07 10:47:09;;;;;;;5.30;4.90;;;;;;;;;;5073471;28;20468;-74
2022/04/07 10:49:35;;;;;;;4.73;3.87;;;;;;;;;;5074410;28;20474;-74
2022/04/07 10:52:07;;;;;;;10.27;6.30;;;;;;;;;;5073532;28;20406;-74
2022/04/07 10:54:33;;;;;;;3.90;3.70;;;;;;;;;;5055571;28;20434;-73
2022/04/07 10:57:01;;;;;;;3.23;3.10;;;;;;;;;;5073439;28;20409;-74
2022/04/07 10:59:31;;;;;;;2.60;2.00;;;;;;;;;;5073482;28;20504;-73
2022/04/07 11:02:04;;;;;;;1.30;1.20;;;;;;;;;;5073483;28;20459;-74
2022/04/07 11:04:41;;;;;;;2.30;1.87;;;;;;;;;;5073356;28;20418;-74
2022/04/07 11:07:13;;;;;;;2.57;1.73;;;;;;;;;;5072843;28;20473;-75
2022/04/07 11:09:54;;;;;;;1.60;0.50;;;;;;;;;;5073100;28;20398;-74
2022/04/07 11:12:24;;;;;;;5.90;3.43;;;;;;;;;;5073282;28;20439;-75
2022/04/07 11:14:52;;;;;;;0.70;0.70;;;;;;;;;;5073210;28;20901;-75
2022/04/07 11:17:37;;;;;;;2.40;2.30;;;;;;;;;;5073291;28;20609;-74
2022/04/07 11:20:18;;;;;;;1.60;0.67;;;;;;;;;;5073432;28;20415;-74
2022/04/07 11:22:55;;;;;;;7.60;2.03;;;;;;;;;;5073223;28;20409;-75
2022/04/07 11:25:20;;;;;;;2.40;2.10;;;;;;;;;;5073342;28;20417;-74
2022/04/07 11:28:02;;;;;;;0.50;0.50;;;;;;;;;;5072931;28;20830;-74
2022/04/07 11:30:36;;;;;;;0.57;0.57;;;;;;;;;;5055072;28;20441;-74
2022/04/07 11:33:14;;;;;;;1.50;0.40;;;;;;;;;;5072924;28;20457;-77
2022/04/07 11:35:41;;;;;;;2.20;0.67;;;;;;;;;;5072920;28;20409;-74
2022/04/07 11:38:07;;;;;;;2.10;0.53;;;;;;;;;;5072781;28;20459;-74
2022/04/07 11:40:33;;;;;;;0.50;0.50;;;;;;;;;;5073102;28;20466;-73
2022/04/07 11:42:59;;;;;;;1.50;0.60;;;;;;;;;;5073363;28;20417;-75
2022/04/07 11:45:31;;;;;;;6.13;0.63;;;;;;;;;;5073079;28;20412;-74
2022/04/07 11:47:57;;;;;;;0.67;0.60;;;;;;;;;;5072714;28;20464;-75
2022/04/07 11:50:24;;;;;;;0.97;0.83;;;;;;;;;;5072962;28;20409;-73
2022/04/07 11:52:50;;;;;;;0.80;0.53;;;;;;;;;;5072720;28;20520;-75
2022/04/07 11:55:27;;;;;;;0.53;0.53;;;;;;;;;;5072673;28;20412;-74
2022/04/07 11:57:58;;;;;;;0.40;0.40;;;;;;;;;;5072902;28;20397;-74
2022/04/07 12:00:28;;;;;;;1.30;0.70;;;;;;;;;;5072880;28;20400;-74
2022/04/07 12:02:58;;;;;;;2.10;0.40;;;;;;;;;;5072556;28;20444;-75
2022/04/07 12:05:24;;;;;;;11.20;0.83;;;;;;;;;;5072530;28;20509;-73
2022/04/07 12:07:50;;;;;;;5.30;1.10;;;;;;;;;;5072475;28;20492;-76
2022/04/07 12:10:16;;;;;;;0.67;0.40;;;;;;;;;;5072602;28;20448;-76
2022/04/07 12:12:43;;;;;;;0.50;0.50;;;;;;;;;;5072782;28;20441;-74
2022/04/07 12:15:09;;;;;;;1.60;0.50;;;;;;;;;;5072398;28;20948;-74
2022/04/07 12:17:36;;;;;;;0.50;0.50;;;;;;;;;;5073420;28;20504;-72
2022/04/07 12:20:03;;;;;;;3.50;0.50;;;;;;;;;;5076729;28;20523;-74
2022/04/07 12:22:31;;;;;;;4.43;1.10;;;;;;;;;;5076389;28;20435;-74
2022/04/07 12:25:04;;;;;;;10.93;4.47;;;;;;;;;;5058135;28;20436;-74
2022/04/07 12:27:34;;;;;;;1.20;1.03;;;;;;;;;;5076023;28;20461;-75
2022/04/07 12:30:01;;;;;;;0.30;0.30;;;;;;;;;;5076561;28;20414;-75
2022/04/07 12:32:40;;;;;;;1.83;0.40;;;;;;;;;;5076040;28;20469;-78
2022/04/07 12:35:06;;;;;;;0.40;0.40;;;;;;;;;;5076407;28;20565;-75
2022/04/07 12:37:36;;;;;;;2.23;0.30;;;;;;;;;;5076116;28;20418;-73
2022/04/07 12:40:03;;;;;;;0.30;0.30;;;;;;;;;;5075899;28;20489;-74
2022/04/07 12:42:29;;;;;;;0.40;0.40;;;;;;;;;;5076098;28;20843;-75
2022/04/07 12:45:08;;;;;;;1.37;0.50;;;;;;;;;;5076164;28;20425;-76
2022/04/07 12:47:34;;;;;;;0.30;0.30;;;;;;;;;;5076725;28;20501;-74
2022/04/07 12:50:01;;;;;;;3.03;0.93;;;;;;;;;;5075905;28;20740;-74
2022/04/07 12:52:43;;;;;;;0.30;0.30;;;;;;;;;;5075876;28;20414;-74
2022/04/07 12:55:15;;;;;;;2.40;0.60;;;;;;;;;;5076126;28;20405;-75
2022/04/07 12:57:42;;;;;;;0.67;0.30;;;;;;;;;;5075835;28;20447;-73
2022/04/07 13:00:10;;;;;;;0.30;0.30;;;;;;;;;;5075609;28;20898;-74
2022/04/07 13:02:53;;;;;;;1.63;1.63;;;;;;;;;;5058411;28;20471;-75
2022/04/07 13:05:29;;;;;;;4.27;4.07;;;;;;;;;;5075783;28;20424;-75
2022/04/07 13:07:56;;;;;;;5.80;0.83;;;;;;;;;;5075561;28;20638;-74
2022/04/07 13:10:23;;;;;;;0.67;0.67;;;;;;;;;;5075575;28;20417;-73
2022/04/07 13:12:49;;;;;;;0.60;0.60;;;;;;;;;;5075568;28;20445;-74
2022/04/07 13:15:15;;;;;;;0.50;0.50;;;;;;;;;;5075261;28;20463;-74
2022/04/07 13:17:42;;;;;;;1.20;0.40;;;;;;;;;;5075413;28;20410;-74
2022/04/07 13:20:08;;;;;;;1.50;1.40;;;;;;;;;;5075259;28;20885;-74
2022/04/07 13:22:34;;;;;;;0.73;0.50;;;;;;;;;;5075202;28;20421;-74
2022/04/07 13:25:01;;;;;;;3.50;0.70;;;;;;;;;;5075253;28;20423;-76
2022/04/07 13:27:27;;;;;;;3.67;0.43;;;;;;;;;;5057208;28;20473;-74
2022/04/07 13:29:53;;;;;;;2.10;0.87;;;;;;;;;;5074847;28;20437;-76
2022/04/07 13:32:22;;;;;;;8.90;1.03;;;;;;;;;;5074960;28;20518;-76
2022/04/07 13:34:48;;;;;;;1.17;0.90;;;;;;;;;;5074856;28;20453;-74
2022/04/07 13:37:14;;;;;;;3.00;0.70;;;;;;;;;;5075066;28;20425;-74
2022/04/07 13:39:40;;;;;;;1.80;0.90;;;;;;;;;;5075033;28;20405;-74
2022/04/07 13:42:06;;;;;;;0.60;0.60;;;;;;;;;;5075093;28;20898;-76
2022/04/07 13:44:33;;;;;;;2.90;1.43;;;;;;;;;;5074846;28;20563;-75
2022/04/07 13:46:59;;;;;;;1.93;0.87;;;;;;;;;;5075171;28;20530;-74
2022/04/07 13:49:25;;;;;;;1.43;0.50;;;;;;;;;;5075112;28;20504;-74
2022/04/07 13:51:52;;;;;;;0.33;0.33;;;;;;;;;;5074992;28;20422;-74
2022/04/07 13:54:18;;;;;;;0.57;0.30;;;;;;;;;;5074845;28;20421;-74
2022/04/07 13:56:44;;;;;;;0.73;0.40;;;;;;;;;;5074928;28;20417;-75
2022/04/07 13:59:10;;;;;;;8.03;0.50;;;;;;;;;;5074439;28;20428;-75
2022/04/07 14:01:36;;;;;;;2.10;0.80;;;;;;;;;;5074222;28;20417;-74
2022/04/07 14:04:01;;;;;;;5.20;0.67;;;;;;;;;;5074446;28;20436;-76
2022/04/07 14:06:28;;;;;;;0.30;0.30;;;;;;;;;;5074346;28;20469;-74
2022/04/07 14:08:54;;;;;;;9.93;1.30;;;;;;;;;;5074364;28;20426;-75
2022/04/07 14:11:20;;;;;;;4.90;0.50;;;;;;;;;;5074601;28;20422;-75
2022/04/07 14:13:46;;;;;;;2.03;0.30;;;;;;;;;;5074580;28;20491;-76
2022/04/07 14:16:12;;;;;;;2.73;0.40;;;;;;;;;;5074603;28;20516;-74
2022/04/07 14:18:38;;;;;;;0.83;0.40;;;;;;;;;;5074262;28;20944;-74
2022/04/07 14:21:05;;;;;;;2.77;0.50;;;;;;;;;;5074473;28;20471;-74
2022/04/07 14:23:31;;;;;;;4.90;0.50;;;;;;;;;;5074268;28;20520;-75
2022/04/07 14:25:57;;;;;;;8.60;0.80;;;;;;;;;;5074082;28;20417;-77
2022/04/07 14:28:23;;;;;;;4.37;0.43;;;;;;;;;;5073623;28;20469;-76
2022/04/07 14:30:49;;;;;;;0.60;0.30;;;;;;;;;;5074167;28;20502;-75
2022/04/07 14:33:21;;;;;;;1.40;0.40;;;;;;;;;;5073858;28;20525;-76
2022/04/07 14:35:48;;;;;;;1.17;0.70;;;;;;;;;;5073917;28;20420;-76
2022/04/07 14:38:14;;;;;;;7.37;0.47;;;;;;;;;;5073749;28;20421;-76
2022/04/07 14:40:43;;;;;;;1.63;0.40;;;;;;;;;;5073208;28;20421;-74
2022/04/07 14:43:10;;;;;;;1.87;0.40;;;;;;;;;;5055754;28;20837;-73
2022/04/07 14:45:37;;;;;;;0.83;0.60;;;;;;;;;;5073997;28;20437;-74
2022/04/07 14:48:04;;;;;;;2.53;1.17;;;;;;;;;;5073874;28;20526;-73
2022/04/07 14:50:30;;;;;;;0.87;0.40;;;;;;;;;;5073447;28;20766;-74
2022/04/07 14:52:56;;;;;;;5.50;0.73;;;;;;;;;;5073348;28;20414;-75
2022/04/07 14:55:22;;;;;;;5.53;0.33;;;;;;;;;;5055222;28;20959;-75